createdAt,value
2019-01-12T00:00:42.204Z,99149.08
2019-01-12T00:03:11.343Z,99147.05
2019-01-12T00:05:39.662Z,99143.64
2019-01-12T00:08:07.944Z,99151.57
2019-01-12T00:10:36.338Z,99146.14
2019-01-12T00:13:04.761Z,99144.91
2019-01-12T00:15:33.506Z,99146.40
2019-01-12T00:18:01.951Z,99146.44
2019-01-12T00:20:30.654Z,99150.64
2019-01-12T00:22:59.594Z,99146.51
2019-01-12T00:25:28.029Z,99148.61
2019-01-12T00:27:56.416Z,99143.36
2019-01-12T00:30:24.594Z,99147.34
2019-01-12T00:32:52.626Z,99150.30
2019-01-12T00:35:20.791Z,99149.59
2019-01-12T00:37:49.139Z,99149.12
2019-01-12T00:40:17.905Z,99149.63
2019-01-12T00:42:46.018Z,99150.75
2019-01-12T00:45:15.176Z,99148.28
2019-01-12T00:47:43.391Z,99159.16
2019-01-12T00:50:12.455Z,99148.33
2019-01-12T00:52:41.293Z,99151.00
2019-01-12T00:55:10.350Z,99152.63
2019-01-12T00:57:38.600Z,99151.93
2019-01-12T01:00:11.384Z,99148.95
2019-01-12T01:02:39.423Z,99162.64
2019-01-12T01:05:09.398Z,99154.59
2019-01-12T01:07:37.546Z,99167.25
2019-01-12T01:10:07.348Z,99160.94
2019-01-12T01:12:35.733Z,99165.83
2019-01-12T01:15:04.068Z,99164.48
2019-01-12T01:17:32.132Z,99165.50
2019-01-12T01:20:00.313Z,99163.78
2019-01-12T01:22:28.550Z,99165.39
2019-01-12T01:24:56.937Z,99165.73
2019-01-12T01:27:25.312Z,99171.89
2019-01-12T01:29:53.665Z,99177.58
2019-01-12T01:32:21.722Z,99177.95
2019-01-12T01:34:49.866Z,99174.97
2019-01-12T01:37:18.005Z,99178.82
2019-01-12T01:39:46.062Z,99184.47
2019-01-12T01:42:14.639Z,99185.34
2019-01-12T01:44:42.739Z,99183.17
2019-01-12T01:47:10.875Z,99187.04
2019-01-12T01:49:39.261Z,99185.62
2019-01-12T01:52:07.330Z,99189.22
2019-01-12T01:54:35.703Z,99181.64
2019-01-12T01:57:03.865Z,99184.82
2019-01-12T01:59:32.291Z,99186.56
2019-01-12T02:02:01.868Z,99189.48
2019-01-12T02:04:29.906Z,99186.46
2019-01-12T02:06:57.961Z,99184.78
2019-01-12T02:09:26.150Z,99183.86
2019-01-12T02:11:54.572Z,99177.84
2019-01-12T02:14:22.938Z,99182.59
2019-01-12T02:16:51.641Z,99176.31
2019-01-12T02:19:19.819Z,99181.94
2019-01-12T02:21:48.180Z,99182.38
2019-01-12T02:24:16.679Z,99185.56
2019-01-12T02:26:44.691Z,99182.30
2019-01-12T02:29:12.741Z,99175.19
2019-01-12T02:31:41.156Z,99180.23
2019-01-12T02:34:09.574Z,99182.88
2019-01-12T02:36:37.706Z,99172.04
2019-01-12T02:39:07.130Z,99171.28
2019-01-12T02:41:35.407Z,99172.91
2019-01-12T02:44:03.473Z,99177.16
2019-01-12T02:46:31.643Z,99173.89
2019-01-12T02:48:59.666Z,99177.11
2019-01-12T02:51:28.276Z,99166.86
2019-01-12T02:53:56.404Z,99167.10
2019-01-12T02:56:24.563Z,99169.31
2019-01-12T02:58:53.059Z,99165.28
2019-01-12T03:01:21.534Z,99158.31
2019-01-12T03:03:49.561Z,99163.38
2019-01-12T03:06:17.578Z,99157.85
2019-01-12T03:08:45.739Z,99159.52
2019-01-12T03:11:13.775Z,99151.36
2019-01-12T03:13:41.924Z,99148.38
2019-01-12T03:16:10.294Z,99147.87
2019-01-12T03:18:38.761Z,99141.89
2019-01-12T03:21:06.846Z,99147.73
2019-01-12T03:23:36.120Z,99144.12
2019-01-12T03:26:04.239Z,99148.41
2019-01-12T03:28:32.406Z,99146.20
2019-01-12T03:31:00.853Z,99143.49
2019-01-12T03:33:29.338Z,99140.88
2019-01-12T03:35:57.390Z,99142.69
2019-01-12T03:38:26.986Z,99141.38
2019-01-12T03:40:55.328Z,99147.41
2019-01-12T03:43:23.654Z,99142.05
2019-01-12T03:45:52.155Z,99145.60
2019-01-12T03:48:20.610Z,99142.69
2019-01-12T03:50:48.895Z,99145.30
2019-01-12T03:53:17.033Z,99135.62
2019-01-12T03:55:45.343Z,99135.02
2019-01-12T03:58:13.416Z,99138.50
2019-01-12T04:00:41.861Z,99139.77
2019-01-12T04:03:10.588Z,99141.38
2019-01-12T04:05:38.746Z,99139.81
2019-01-12T04:08:07.046Z,99135.45
2019-01-12T04:10:36.129Z,99135.58
2019-01-12T04:13:04.632Z,99143.88
2019-01-12T04:15:33.093Z,99140.48
2019-01-12T04:18:01.365Z,99135.61
2019-01-12T04:20:29.414Z,99127.54
2019-01-12T04:22:57.850Z,99128.14
2019-01-12T04:25:33.279Z,99123.82
2019-01-12T04:27:55.661Z,99123.86
2019-01-12T04:30:23.794Z,99128.70
2019-01-12T04:32:51.841Z,99138.06
2019-01-12T04:35:19.950Z,99134.20
2019-01-12T04:37:48.009Z,99132.47
2019-01-12T04:40:19.334Z,99134.58
2019-01-12T04:42:47.465Z,99129.45
2019-01-12T04:45:15.596Z,99128.98
2019-01-12T04:47:44.508Z,99127.25
2019-01-12T04:50:14.282Z,99124.16
2019-01-12T04:52:42.623Z,99125.44
2019-01-12T04:55:11.047Z,99124.56
2019-01-12T04:57:39.082Z,99126.28
2019-01-12T05:00:09.655Z,99115.45
2019-01-12T05:02:37.792Z,99116.33
2019-01-12T05:05:06.150Z,99120.19
2019-01-12T05:07:34.336Z,99123.03
2019-01-12T05:10:02.525Z,99123.23
2019-01-12T05:12:30.830Z,99124.56
2019-01-12T05:14:59.209Z,99126.71
2019-01-12T05:17:28.410Z,99127.52
2019-01-12T05:19:58.107Z,99125.09
2019-01-12T05:22:26.261Z,99127.30
2019-01-12T05:24:54.772Z,99123.06
2019-01-12T05:27:23.147Z,99122.64
2019-01-12T05:29:51.231Z,99123.73
2019-01-12T05:32:19.256Z,99123.63
2019-01-12T05:34:47.578Z,99116.42
2019-01-12T05:37:15.788Z,99122.14
2019-01-12T05:39:43.835Z,99127.25
2019-01-12T05:42:12.204Z,99120.36
2019-01-12T05:44:41.344Z,99128.55
2019-01-12T05:47:09.704Z,99126.00
2019-01-12T05:49:37.745Z,99127.86
2019-01-12T05:52:05.893Z,99125.91
2019-01-12T05:54:34.196Z,99123.34
2019-01-12T05:57:02.471Z,99125.52
2019-01-12T05:59:30.889Z,99126.52
2019-01-12T06:01:59.376Z,99128.08
2019-01-12T06:04:27.815Z,99135.19
2019-01-12T06:06:56.578Z,99131.41
2019-01-12T06:09:25.090Z,99125.58
2019-01-12T06:11:53.494Z,99129.23
2019-01-12T06:14:21.924Z,99125.34
2019-01-12T06:16:50.524Z,99133.48
2019-01-12T06:19:18.662Z,99129.86
2019-01-12T06:21:47.046Z,99124.14
2019-01-12T06:24:15.163Z,99123.41
2019-01-12T06:26:43.771Z,99122.30
2019-01-12T06:29:11.775Z,99124.41
2019-01-12T06:31:39.959Z,99118.98
2019-01-12T06:34:08.082Z,99118.22
2019-01-12T06:36:36.383Z,99120.36
2019-01-12T06:39:08.974Z,99126.52
2019-01-12T06:41:37.374Z,99125.95
2019-01-12T06:44:05.967Z,99127.62
2019-01-12T06:46:34.454Z,99121.89
2019-01-12T06:49:02.531Z,99124.30
2019-01-12T06:51:31.200Z,99125.98
2019-01-12T06:53:59.280Z,99124.67
2019-01-12T06:56:27.961Z,99132.87
2019-01-12T06:58:55.966Z,99129.06
2019-01-12T07:01:24.617Z,99138.53
2019-01-12T07:03:52.986Z,99129.69
2019-01-12T07:06:21.621Z,99136.12
2019-01-12T07:08:49.736Z,99137.23
2019-01-12T07:11:17.879Z,99138.63
2019-01-12T07:13:45.965Z,99141.82
2019-01-12T07:16:17.611Z,99139.56
2019-01-12T07:18:45.720Z,99140.05
2019-01-12T07:21:14.200Z,99138.67
2019-01-12T07:23:42.523Z,99143.62
2019-01-12T07:26:20.166Z,99145.84
2019-01-12T07:28:54.670Z,99153.44
2019-01-12T07:31:23.872Z,99152.50
2019-01-12T07:33:52.263Z,99146.47
2019-01-12T07:36:20.555Z,99148.88
2019-01-12T07:38:48.867Z,99156.40
2019-01-12T07:41:16.988Z,99153.56
2019-01-12T07:43:45.697Z,99167.80
2019-01-12T07:46:13.938Z,99163.81
2019-01-12T07:48:42.140Z,99169.56
2019-01-12T07:51:10.252Z,99168.30
2019-01-12T07:53:38.629Z,99165.44
2019-01-12T07:56:06.664Z,99163.75
2019-01-12T07:58:34.697Z,99163.78
2019-01-12T08:01:02.793Z,99165.52
2019-01-12T08:03:31.182Z,99166.22
2019-01-12T08:05:59.263Z,99166.80
2019-01-12T08:08:27.287Z,99166.55
2019-01-12T08:10:55.393Z,99165.47
2019-01-12T08:13:23.776Z,99169.19
2019-01-12T08:15:51.829Z,99167.80
2019-01-12T08:18:20.109Z,99167.67
2019-01-12T08:20:48.816Z,99166.40
2019-01-12T08:23:17.152Z,99164.69
2019-01-12T08:25:45.342Z,99172.06
2019-01-12T08:28:14.484Z,99168.95
2019-01-12T08:30:43.346Z,99170.90
2019-01-12T08:33:11.829Z,99170.37
2019-01-12T08:35:40.419Z,99174.11
2019-01-12T08:38:08.832Z,99171.37
2019-01-12T08:40:37.167Z,99171.45
2019-01-12T08:43:05.325Z,99162.56
2019-01-12T08:45:34.195Z,99165.04
2019-01-12T08:48:04.149Z,99164.27
2019-01-12T08:50:33.958Z,99164.98
2019-01-12T08:53:03.921Z,99164.74
2019-01-12T08:55:32.038Z,99160.73
2019-01-12T08:58:00.345Z,99170.11
2019-01-12T09:00:28.819Z,99166.86
2019-01-12T09:02:57.596Z,99162.91
2019-01-12T09:05:25.839Z,99166.27
2019-01-12T09:07:54.584Z,99167.93
2019-01-12T09:10:23.255Z,99168.39
2019-01-12T09:12:51.532Z,99170.49
2019-01-12T09:15:19.926Z,99162.34
2019-01-12T09:17:48.168Z,99159.59
2019-01-12T09:20:16.736Z,99158.32
2019-01-12T09:22:45.242Z,99155.70
2019-01-12T09:25:13.948Z,99149.82
2019-01-12T09:27:42.071Z,99147.63
2019-01-12T09:30:11.994Z,99154.31
2019-01-12T09:32:40.650Z,99156.09
2019-01-12T09:35:09.551Z,99156.27
2019-01-12T09:37:38.396Z,99154.11
2019-01-12T09:40:08.129Z,99156.55
2019-01-12T09:42:36.816Z,99158.48
2019-01-12T09:45:05.659Z,99157.47
2019-01-12T09:47:33.896Z,99153.55
2019-01-12T09:50:02.538Z,99159.34
2019-01-12T09:52:37.921Z,99160.77
2019-01-12T09:55:06.412Z,99148.75
2019-01-12T09:57:34.482Z,99155.09
2019-01-12T10:00:03.319Z,99154.04
2019-01-12T10:02:31.704Z,99149.16
2019-01-12T10:05:02.623Z,99146.73
2019-01-12T10:07:30.666Z,99148.47
2019-01-12T10:09:58.827Z,99143.91
2019-01-12T10:12:27.060Z,99141.50
2019-01-12T10:14:55.646Z,99143.09
2019-01-12T10:17:23.761Z,99136.68
2019-01-12T10:19:52.184Z,99119.75
2019-01-12T10:22:20.781Z,99131.64
2019-01-12T10:24:51.508Z,99120.84
2019-01-12T10:27:23.603Z,99113.34
2019-01-12T10:29:52.266Z,99103.45
2019-01-12T10:32:23.008Z,99097.40
2019-01-12T10:34:53.245Z,99100.40
2019-01-12T10:37:24.946Z,99092.79
2019-01-12T10:39:58.757Z,99085.73
2019-01-12T10:42:26.965Z,99082.44
2019-01-12T10:44:55.474Z,99079.80
2019-01-12T10:47:25.931Z,99064.25
2019-01-12T10:49:54.058Z,99066.41
2019-01-12T10:52:22.280Z,99071.75
2019-01-12T10:55:17.131Z,99066.80
2019-01-12T10:57:45.202Z,99059.88
2019-01-12T11:00:15.520Z,99059.45
2019-01-12T11:02:43.547Z,99058.30
2019-01-12T11:05:11.621Z,99046.81
2019-01-12T11:07:39.968Z,99038.96
2019-01-12T11:10:11.545Z,99034.43
2019-01-12T11:12:40.050Z,99029.70
2019-01-12T11:15:12.653Z,99022.30
2019-01-12T11:17:41.079Z,99023.51
2019-01-12T11:20:09.327Z,99012.17
2019-01-12T11:22:37.482Z,99021.24
2019-01-12T11:25:06.364Z,99017.87
2019-01-12T11:27:35.359Z,99007.36
2019-01-12T11:30:05.293Z,99011.23
2019-01-12T11:32:34.404Z,99004.65
2019-01-12T11:35:03.102Z,99017.56
2019-01-12T11:37:31.424Z,99017.76
2019-01-12T11:40:02.082Z,99023.27
2019-01-12T11:42:30.127Z,99012.88
2019-01-12T11:44:58.994Z,99013.53
2019-01-12T11:47:29.062Z,98996.81
2019-01-12T11:49:57.217Z,98995.59
2019-01-12T11:52:25.468Z,98983.84
2019-01-12T11:54:53.521Z,98981.78
2019-01-12T11:57:21.816Z,98976.16
2019-01-12T11:59:50.225Z,98969.19
2019-01-12T12:02:24.642Z,98963.48
2019-01-12T12:04:57.895Z,98957.61
2019-01-12T12:07:28.292Z,98946.77
2019-01-12T12:10:07.222Z,98942.72
2019-01-12T12:12:41.314Z,98935.80
2019-01-12T12:15:13.678Z,98934.59
2019-01-12T12:17:42.151Z,98928.45
2019-01-12T12:20:12.052Z,98917.52
2019-01-12T12:22:45.459Z,98909.66
2019-01-12T12:25:14.989Z,98900.49
2019-01-12T12:27:52.536Z,98907.87
2019-01-12T12:30:25.503Z,98911.09
2019-01-12T12:32:58.201Z,98916.33
2019-01-12T12:35:37.687Z,98914.86
2019-01-12T12:38:06.766Z,98908.41
2019-01-12T12:40:38.187Z,98903.01
2019-01-12T12:43:06.655Z,98904.23
2019-01-12T12:45:36.025Z,98895.02
2019-01-12T12:48:04.407Z,98893.78
2019-01-12T12:50:32.547Z,98890.31
2019-01-12T12:53:00.946Z,98890.31
2019-01-12T12:55:28.948Z,98883.00
2019-01-12T12:57:57.006Z,98890.02
2019-01-12T13:00:32.744Z,98892.53
2019-01-12T13:03:07.515Z,98881.69
2019-01-12T13:05:50.082Z,98880.94
2019-01-12T13:08:22.699Z,98868.67
2019-01-12T13:10:51.233Z,98874.83
2019-01-12T13:13:19.384Z,98874.05
2019-01-12T13:15:49.473Z,98864.86
2019-01-12T13:18:41.735Z,98868.34
2019-01-12T13:21:10.406Z,98870.10
2019-01-12T13:23:38.813Z,98877.05
2019-01-12T13:26:10.123Z,98874.94
2019-01-12T13:28:40.151Z,98872.78
2019-01-12T13:31:09.056Z,98872.87
2019-01-12T13:33:37.127Z,98879.00
2019-01-12T13:36:06.417Z,98865.02
2019-01-12T13:38:35.338Z,98865.03
2019-01-12T13:41:04.242Z,98858.92
2019-01-12T13:43:33.031Z,98860.71
2019-01-12T13:46:01.445Z,98859.41
2019-01-12T13:48:29.507Z,98861.84
2019-01-12T13:50:57.580Z,98853.30
2019-01-12T13:53:25.924Z,98844.58
2019-01-12T13:55:54.316Z,98839.34
2019-01-12T13:58:22.429Z,98834.14
2019-01-12T14:00:50.500Z,98831.95
2019-01-12T14:03:18.522Z,98823.56
2019-01-12T14:05:46.992Z,98813.98
2019-01-12T14:08:15.060Z,98817.48
2019-01-12T14:10:43.858Z,98806.03
2019-01-12T14:13:12.644Z,98802.58
2019-01-12T14:15:40.972Z,98795.94
2019-01-12T14:18:09.495Z,98792.45
2019-01-12T14:20:38.895Z,98785.99
2019-01-12T14:23:07.167Z,98775.17
2019-01-12T14:25:35.269Z,98771.19
2019-01-12T14:28:04.347Z,98771.63
2019-01-12T14:30:32.743Z,98768.58
2019-01-12T14:33:00.890Z,98767.23
2019-01-12T14:35:28.957Z,98767.71
2019-01-12T14:37:57.282Z,98760.36
2019-01-12T14:40:26.150Z,98756.83
2019-01-12T14:42:54.578Z,98749.81
2019-01-12T14:45:23.990Z,98754.17
2019-01-12T14:47:52.264Z,98763.40
2019-01-12T14:50:20.302Z,98754.70
2019-01-12T14:52:48.651Z,98749.48
2019-01-12T14:55:17.056Z,98734.72
2019-01-12T14:57:45.868Z,98731.24
2019-01-12T15:00:18.551Z,98724.80
2019-01-12T15:02:47.003Z,98722.05
2019-01-12T15:05:17.211Z,98717.31
2019-01-12T15:07:45.430Z,98711.66
2019-01-12T15:10:14.804Z,98717.78
2019-01-12T15:12:43.146Z,98712.58
2019-01-12T15:15:11.660Z,98702.92
2019-01-12T15:17:40.086Z,98706.44
2019-01-12T15:20:09.732Z,98702.98
2019-01-12T15:22:37.930Z,98694.39
2019-01-12T15:25:06.064Z,98701.67
2019-01-12T15:27:34.272Z,98703.40
2019-01-12T15:30:02.543Z,98696.91
2019-01-12T15:32:30.646Z,98700.83
2019-01-12T15:34:58.987Z,98697.75
2019-01-12T15:37:27.083Z,98694.67
2019-01-12T15:39:55.123Z,98694.25
2019-01-12T15:42:23.591Z,98692.97
2019-01-12T15:44:51.831Z,98689.48
2019-01-12T15:47:21.077Z,98692.50
2019-01-12T15:49:49.301Z,98682.48
2019-01-12T15:52:17.618Z,98679.88
2019-01-12T15:54:46.020Z,98670.30
2019-01-12T15:57:14.647Z,98665.88
2019-01-12T15:59:43.283Z,98660.22
2019-01-12T16:02:11.434Z,98653.27
2019-01-12T16:04:39.487Z,98651.53
2019-01-12T16:07:07.565Z,98647.15
2019-01-12T16:09:35.634Z,98644.59
2019-01-12T16:12:03.681Z,98647.69
2019-01-12T16:14:31.821Z,98648.41
2019-01-12T16:17:00.175Z,98644.53
2019-01-12T16:19:28.554Z,98643.13
2019-01-12T16:21:56.747Z,98628.80
2019-01-12T16:24:25.176Z,98631.00
2019-01-12T16:26:53.437Z,98615.75
2019-01-12T16:29:22.308Z,98614.86
2019-01-12T16:31:50.675Z,98607.06
2019-01-12T16:34:18.929Z,98613.55
2019-01-12T16:36:47.230Z,98603.09
2019-01-12T16:39:16.012Z,98591.80
2019-01-12T16:41:44.271Z,98580.91
2019-01-12T16:44:12.972Z,98579.60
2019-01-12T16:46:41.900Z,98583.92
2019-01-12T16:49:10.090Z,98579.17
2019-01-12T16:51:38.250Z,98573.98
2019-01-12T16:54:06.545Z,98571.72
2019-01-12T16:56:34.741Z,98567.38
2019-01-12T16:59:03.215Z,98564.78
2019-01-12T17:01:31.402Z,98559.53
2019-01-12T17:04:00.185Z,98559.97
2019-01-12T17:06:28.435Z,98565.67
2019-01-12T17:08:57.041Z,98566.09
2019-01-12T17:11:25.221Z,98567.40
2019-01-12T17:13:53.623Z,98554.77
2019-01-12T17:16:21.962Z,98548.25
2019-01-12T17:18:50.006Z,98542.12
2019-01-12T17:21:18.046Z,98553.44
2019-01-12T17:23:46.410Z,98548.21
2019-01-12T17:26:14.508Z,98546.02
2019-01-12T17:28:42.893Z,98549.05
2019-01-12T17:31:11.012Z,98533.31
2019-01-12T17:33:39.303Z,98536.81
2019-01-12T17:36:08.202Z,98544.22
2019-01-12T17:38:36.631Z,98541.19
2019-01-12T17:41:04.709Z,98542.91
2019-01-12T17:43:33.556Z,98539.38
2019-01-12T17:46:01.888Z,98534.95
2019-01-12T17:48:30.412Z,98535.42
2019-01-12T17:50:58.991Z,98542.78
2019-01-12T17:53:27.334Z,98534.47
2019-01-12T17:55:55.403Z,98534.94
2019-01-12T17:58:23.842Z,98535.80
2019-01-12T18:00:53.007Z,98533.50
2019-01-12T18:03:21.302Z,98533.14
2019-01-12T18:05:49.777Z,98523.53
2019-01-12T18:08:18.046Z,98523.14
2019-01-12T18:10:46.640Z,98511.95
2019-01-12T18:13:14.941Z,98511.80
2019-01-12T18:15:43.062Z,98507.89
2019-01-12T18:18:11.261Z,98508.74
2019-01-12T18:20:39.650Z,98494.41
2019-01-12T18:23:07.937Z,98500.48
2019-01-12T18:25:36.300Z,98495.67
2019-01-12T18:28:05.179Z,98486.95
2019-01-12T18:30:33.228Z,98490.84
2019-01-12T18:33:01.393Z,98496.05
2019-01-12T18:35:30.107Z,98485.55
2019-01-12T18:37:58.395Z,98485.12
2019-01-12T18:40:26.763Z,98490.27
2019-01-12T18:42:54.792Z,98485.12
2019-01-12T18:45:23.071Z,98467.72
2019-01-12T18:47:51.093Z,98479.03
2019-01-12T18:50:23.361Z,98476.86
2019-01-12T18:52:51.989Z,98469.06
2019-01-12T18:55:20.326Z,98465.67
2019-01-12T18:57:48.416Z,98468.66
2019-01-12T19:00:20.779Z,98475.64
2019-01-12T19:02:48.915Z,98474.84
2019-01-12T19:05:18.034Z,98479.08
2019-01-12T19:07:46.584Z,98468.08
2019-01-12T19:10:14.853Z,98466.38
2019-01-12T19:12:43.153Z,98464.19
2019-01-12T19:15:13.248Z,98457.67
2019-01-12T19:17:41.409Z,98452.06
2019-01-12T19:20:09.547Z,98456.88
2019-01-12T19:22:38.122Z,98455.56
2019-01-12T19:25:07.423Z,98439.06
2019-01-12T19:27:35.917Z,98449.11
2019-01-12T19:30:04.758Z,98439.05
2019-01-12T19:32:33.586Z,98448.70
2019-01-12T19:35:01.818Z,98434.66
2019-01-12T19:37:29.942Z,98437.34
2019-01-12T19:39:58.461Z,98428.20
2019-01-12T19:42:26.961Z,98426.05
2019-01-12T19:44:58.569Z,98423.90
2019-01-12T19:47:28.273Z,98416.53
2019-01-12T19:50:01.798Z,98413.59
2019-01-12T19:52:33.034Z,98398.25
2019-01-12T19:55:01.219Z,98393.59
2019-01-12T19:57:31.191Z,98400.14
2019-01-12T19:59:59.419Z,98388.73
2019-01-12T20:02:27.879Z,98376.41
2019-01-12T20:04:56.279Z,98374.25
2019-01-12T20:07:24.652Z,98364.27
2019-01-12T20:09:53.098Z,98364.75
2019-01-12T20:12:21.467Z,98363.02
2019-01-12T20:14:49.518Z,98363.94
2019-01-12T20:17:18.330Z,98355.77
2019-01-12T20:19:46.515Z,98351.42
2019-01-12T20:22:15.240Z,98356.65
2019-01-12T20:24:43.327Z,98345.75
2019-01-12T20:27:12.661Z,98349.23
2019-01-12T20:29:41.457Z,98354.36
2019-01-12T20:32:25.380Z,98355.36
2019-01-12T20:35:15.489Z,98353.59
2019-01-12T20:38:18.070Z,98355.22
2019-01-12T20:41:03.902Z,98352.14
2019-01-12T20:43:53.895Z,98363.51
2019-01-12T20:46:39.790Z,98366.98
2019-01-12T20:49:39.490Z,98358.16
2019-01-12T20:52:26.961Z,98365.25
2019-01-12T20:57:47.788Z,98354.45
2019-01-12T21:00:25.547Z,98360.09
2019-01-12T21:03:10.035Z,98355.80
2019-01-12T21:05:41.507Z,98355.79
2019-01-12T21:08:15.163Z,98354.91
2019-01-12T21:10:48.020Z,98354.02
2019-01-12T21:13:38.280Z,98352.29
2019-01-12T21:16:08.845Z,98348.80
2019-01-12T21:18:37.399Z,98345.32
2019-01-12T21:21:05.983Z,98343.12
2019-01-12T21:23:34.724Z,98337.05
2019-01-12T21:26:02.755Z,98342.69
2019-01-12T21:28:31.308Z,98338.36
2019-01-12T21:30:59.770Z,98333.12
2019-01-12T21:33:27.941Z,98324.84
2019-01-12T21:35:56.203Z,98332.70
2019-01-12T21:38:24.462Z,98327.90
2019-01-12T21:40:53.312Z,98321.83
2019-01-12T21:43:21.449Z,98313.52
2019-01-12T21:45:49.719Z,98315.68
2019-01-12T21:48:17.851Z,98311.38
2019-01-12T21:50:46.301Z,98308.34
2019-01-12T21:53:14.451Z,98303.52
2019-01-12T21:55:42.507Z,98301.34
2019-01-12T21:58:10.931Z,98291.72
2019-01-12T22:00:39.524Z,98289.52
2019-01-12T22:03:07.989Z,98294.85
2019-01-12T22:05:36.017Z,98295.28
2019-01-12T22:08:04.602Z,98290.48
2019-01-12T22:10:32.661Z,98286.14
2019-01-12T22:13:01.310Z,98288.31
2019-01-12T22:15:29.470Z,98293.53
2019-01-12T22:17:57.709Z,98289.19
2019-01-12T22:20:25.784Z,98282.25
2019-01-12T22:22:54.065Z,98281.81
2019-01-12T22:25:22.241Z,98276.50
2019-01-12T22:27:50.771Z,98274.67
2019-01-12T22:30:19.014Z,98277.81
2019-01-12T22:32:47.476Z,98279.58
2019-01-12T22:35:15.780Z,98285.70
2019-01-12T22:37:43.924Z,98279.19
2019-01-12T22:40:14.590Z,98289.20
2019-01-12T22:42:42.762Z,98276.55
2019-01-12T22:45:11.266Z,98286.14
2019-01-12T22:47:39.351Z,98283.52
2019-01-12T22:50:08.251Z,98287.03
2019-01-12T22:52:36.664Z,98279.13
2019-01-12T22:55:06.356Z,98266.88
2019-01-12T22:57:34.680Z,98272.13
2019-01-12T23:00:02.904Z,98265.24
2019-01-12T23:02:31.354Z,98268.33
2019-01-12T23:04:59.716Z,98261.75
2019-01-12T23:07:28.442Z,98263.92
2019-01-12T23:09:56.647Z,98266.56
2019-01-12T23:12:24.924Z,98263.94
2019-01-12T23:14:53.375Z,98268.33
2019-01-12T23:17:21.711Z,98266.58
2019-01-12T23:19:49.857Z,98250.83
2019-01-12T23:22:18.015Z,98246.56
2019-01-12T23:24:47.969Z,98246.98
2019-01-12T23:27:16.157Z,98251.30
2019-01-12T23:29:44.288Z,98260.45
2019-01-12T23:32:12.556Z,98259.16
2019-01-12T23:34:40.882Z,98257.88
2019-01-12T23:37:16.800Z,98255.69
2019-01-12T23:39:48.894Z,98251.34
2019-01-12T23:42:22.233Z,98260.06
2019-01-12T23:45:01.310Z,98248.23
2019-01-12T23:47:30.464Z,98247.84
2019-01-12T23:49:58.477Z,98246.56
2019-01-12T23:52:26.900Z,98249.14
2019-01-12T23:54:55.272Z,98237.41
2019-01-12T23:57:23.356Z,98236.52
2019-01-12T23:59:51.503Z,98230.02
